createdAt,value
2019-02-26T00:00:17.130Z,3.54
2019-02-26T00:05:17.333Z,3.54
2019-02-26T00:10:11.665Z,3.42
2019-02-26T00:15:13.337Z,3.41
2019-02-26T00:20:10.946Z,3.29
2019-02-26T00:25:08.490Z,3.24
2019-02-26T00:30:11.291Z,3.06
2019-02-26T00:35:08.586Z,3.03
2019-02-26T00:40:07.901Z,3.62
2019-02-26T00:45:29.488Z,3.36
2019-02-26T00:50:28.029Z,2.98
2019-02-26T00:55:27.303Z,2.91
2019-02-26T01:00:21.937Z,3.63
2019-02-26T01:05:18.528Z,3.77
2019-02-26T01:10:16.398Z,3.42
2019-02-26T01:15:19.013Z,3.03
2019-02-26T01:20:16.042Z,3.05
2019-02-26T01:25:13.437Z,2.76
2019-02-26T01:30:18.215Z,2.76
2019-02-26T01:35:12.927Z,3.25
2019-02-26T01:40:13.793Z,2.86
2019-02-26T01:45:13.664Z,2.78
2019-02-26T01:50:11.609Z,2.63
2019-02-26T01:55:09.841Z,2.80
2019-02-26T02:00:09.531Z,3.61
2019-02-26T02:05:07.106Z,3.01
2019-02-26T02:10:05.639Z,2.62
2019-02-26T02:15:02.587Z,2.80
2019-02-26T02:19:58.479Z,3.09
2019-02-26T02:24:55.692Z,2.58
2019-02-26T02:29:54.831Z,2.40
2019-02-26T02:34:49.482Z,2.44
2019-02-26T02:39:45.386Z,2.37
2019-02-26T02:44:44.856Z,2.29
2019-02-26T02:49:42.482Z,2.93
2019-02-26T02:54:41.095Z,2.57
2019-02-26T02:59:39.407Z,2.34
2019-02-26T03:04:34.961Z,2.47
2019-02-26T03:09:31.822Z,2.66
2019-02-26T03:14:30.768Z,2.28
2019-02-26T03:19:26.466Z,2.04
2019-02-26T03:24:25.379Z,1.96
2019-02-26T03:29:20.153Z,1.87
2019-02-26T03:34:21.804Z,2.08
2019-02-26T03:39:13.869Z,1.73
2019-02-26T03:44:09.757Z,1.94
2019-02-26T03:49:05.695Z,1.79
2019-02-26T03:54:01.687Z,1.72
2019-02-26T03:59:00.241Z,1.67
2019-02-26T04:03:57.214Z,1.56
2019-02-26T04:08:55.782Z,1.61
2019-02-26T04:13:52.147Z,1.63
2019-02-26T04:18:49.100Z,1.48
2019-02-26T04:23:46.768Z,1.39
2019-02-26T04:28:49.685Z,2.03
2019-02-26T04:33:53.748Z,1.72
2019-02-26T04:39:27.282Z,1.54
2019-02-26T04:45:08.956Z,1.47
2019-02-26T04:50:08.646Z,1.34
2019-02-26T04:55:06.281Z,1.28
2019-02-26T05:00:05.233Z,1.25
2019-02-26T05:05:00.759Z,1.20
2019-02-26T05:09:58.779Z,1.74
2019-02-26T05:15:13.929Z,1.57
2019-02-26T05:20:12.635Z,1.34
2019-02-26T05:25:10.363Z,1.33
2019-02-26T05:30:09.429Z,1.40
2019-02-26T05:35:05.350Z,1.23
2019-02-26T05:40:01.226Z,1.12
2019-02-26T05:45:00.823Z,0.97
2019-02-26T05:49:59.550Z,1.16
2019-02-26T05:54:56.601Z,1.09
2019-02-26T05:59:52.496Z,1.06
2019-02-26T06:04:48.379Z,1.06
2019-02-26T06:09:45.473Z,1.00
2019-02-26T06:14:43.860Z,1.51
2019-02-26T06:19:44.771Z,1.83
2019-02-26T06:24:40.459Z,1.44
2019-02-26T06:29:37.413Z,1.51
2019-02-26T06:34:33.372Z,1.43
2019-02-26T06:39:31.693Z,1.38
2019-02-26T06:44:27.062Z,1.59
2019-02-26T06:49:24.597Z,3.13
2019-02-26T06:54:22.668Z,3.63
2019-02-26T06:59:22.338Z,4.82
2019-02-26T07:04:18.218Z,6.77
2019-02-26T07:09:16.421Z,8.28
2019-02-26T07:14:11.898Z,8.85
2019-02-26T07:19:09.151Z,8.86
2019-02-26T07:24:07.662Z,9.30
2019-02-26T07:29:05.606Z,9.62
2019-02-26T07:34:03.083Z,9.33
2019-02-26T07:38:59.005Z,8.51
2019-02-26T07:43:54.920Z,7.04
2019-02-26T07:48:53.956Z,5.95
2019-02-26T07:53:51.145Z,5.73
2019-02-26T07:58:46.883Z,5.88
2019-02-26T08:03:43.951Z,6.40
2019-02-26T08:08:42.058Z,6.61
2019-02-26T08:13:38.358Z,7.01
2019-02-26T08:18:34.287Z,7.44
2019-02-26T08:23:30.175Z,7.93
2019-02-26T08:28:26.062Z,8.24
2019-02-26T08:33:22.078Z,8.48
2019-02-26T08:38:17.965Z,8.91
2019-02-26T08:43:13.867Z,9.30
2019-02-26T08:48:09.758Z,9.34
2019-02-26T08:53:05.646Z,9.59
2019-02-26T08:58:01.539Z,9.72
2019-02-26T09:02:57.424Z,10.00
2019-02-26T09:07:53.430Z,10.44
2019-02-26T09:12:51.717Z,10.83
2019-02-26T09:17:47.187Z,10.74
2019-02-26T09:22:45.763Z,10.87
2019-02-26T09:27:42.955Z,10.79
2019-02-26T09:32:40.237Z,10.88
2019-02-26T09:37:36.697Z,11.36
2019-02-26T09:42:32.610Z,11.39
2019-02-26T09:47:30.891Z,11.53
2019-02-26T09:52:27.771Z,11.86
2019-02-26T09:57:25.926Z,12.30
2019-02-26T10:02:24.104Z,12.44
2019-02-26T10:07:19.669Z,12.80
2019-02-26T10:12:17.165Z,12.91
2019-02-26T10:17:14.122Z,13.19
2019-02-26T10:22:13.643Z,13.19
2019-02-26T10:27:09.347Z,13.37
2019-02-26T10:32:11.220Z,13.94
2019-02-26T10:37:06.453Z,13.56
2019-02-26T10:42:04.912Z,14.11
2019-02-26T10:47:08.743Z,14.29
2019-02-26T10:52:07.293Z,14.65
2019-02-26T10:57:08.507Z,14.96
2019-02-26T11:02:07.770Z,14.58
2019-02-26T11:07:08.451Z,14.91
2019-02-26T11:12:05.189Z,15.16
2019-02-26T11:17:00.146Z,14.97
2019-02-26T11:21:58.681Z,15.14
2019-02-26T11:26:53.841Z,15.22
2019-02-26T11:31:49.832Z,15.44
2019-02-26T11:36:45.721Z,14.93
2019-02-26T11:41:41.603Z,15.06
2019-02-26T11:46:37.488Z,15.05
2019-02-26T11:51:37.167Z,15.50
2019-02-26T11:56:31.184Z,15.38
2019-02-26T12:01:29.325Z,15.33
2019-02-26T12:06:25.336Z,15.54
2019-02-26T12:11:23.324Z,15.93
2019-02-26T12:16:19.413Z,15.56
2019-02-26T12:21:15.323Z,15.64
2019-02-26T12:26:11.207Z,16.29
2019-02-26T12:31:09.915Z,16.24
2019-02-26T12:36:07.461Z,16.37
2019-02-26T12:41:02.775Z,16.38
2019-02-26T12:46:00.911Z,16.40
2019-02-26T12:50:58.466Z,16.48
2019-02-26T12:55:56.502Z,16.69
2019-02-26T13:00:52.105Z,17.06
2019-02-26T13:05:49.159Z,16.77
2019-02-26T13:10:49.578Z,16.99
2019-02-26T13:15:44.845Z,17.13
2019-02-26T13:20:44.454Z,17.48
2019-02-26T13:25:41.379Z,17.62
2019-02-26T13:30:37.451Z,17.25
2019-02-26T13:35:33.337Z,17.75
2019-02-26T13:40:29.274Z,17.66
2019-02-26T13:45:30.595Z,17.68
2019-02-26T13:50:27.672Z,17.96
2019-02-26T13:55:23.560Z,17.52
2019-02-26T14:00:25.979Z,17.42
2019-02-26T14:05:17.424Z,17.66
2019-02-26T14:10:18.290Z,17.81
2019-02-26T14:15:21.372Z,17.34
2019-02-26T14:20:17.513Z,17.36
2019-02-26T14:25:13.410Z,17.69
2019-02-26T14:30:22.163Z,17.40
2019-02-26T14:35:20.317Z,17.39
2019-02-26T14:40:19.490Z,17.76
2019-02-26T14:45:22.196Z,17.91
2019-02-26T14:50:43.213Z,17.61
2019-02-26T14:55:39.207Z,17.41
2019-02-26T15:00:35.133Z,17.40
2019-02-26T15:05:31.081Z,17.14
2019-02-26T15:10:27.079Z,17.09
2019-02-26T15:15:24.195Z,17.07
2019-02-26T15:20:26.370Z,17.05
2019-02-26T15:25:24.978Z,17.09
2019-02-26T15:30:21.835Z,17.27
2019-02-26T15:35:17.828Z,17.06
2019-02-26T15:40:15.301Z,17.01
2019-02-26T15:45:19.285Z,17.03
2019-02-26T15:50:17.192Z,16.99
2019-02-26T15:55:28.140Z,17.00
2019-02-26T16:05:41.918Z,16.81
2019-02-26T16:10:38.384Z,16.79
2019-02-26T16:15:40.863Z,16.57
2019-02-26T16:20:36.858Z,16.48
2019-02-26T16:25:33.212Z,16.60
2019-02-26T16:30:30.306Z,16.50
2019-02-26T16:35:26.646Z,16.13
2019-02-26T16:40:24.548Z,16.03
2019-02-26T16:45:34.308Z,15.81
2019-02-26T16:50:29.890Z,15.61
2019-02-26T16:55:26.536Z,15.30
2019-02-26T17:00:48.848Z,15.17
2019-02-26T17:05:48.287Z,14.80
2019-02-26T17:10:44.350Z,13.71
2019-02-26T17:15:40.873Z,12.89
2019-02-26T17:20:36.934Z,12.52
2019-02-26T17:25:32.835Z,12.01
2019-02-26T17:30:28.752Z,11.64
2019-02-26T17:35:28.753Z,11.50
2019-02-26T17:40:23.635Z,11.30
2019-02-26T17:45:26.823Z,12.02
2019-02-26T17:50:34.617Z,11.84
2019-02-26T17:55:30.608Z,10.93
2019-02-26T18:00:28.207Z,10.22
2019-02-26T18:05:24.077Z,10.27
2019-02-26T18:10:22.567Z,9.57
2019-02-26T18:15:18.612Z,9.28
2019-02-26T18:20:19.868Z,9.55
2019-02-26T18:25:19.836Z,9.30
2019-02-26T18:30:37.527Z,9.12
2019-02-26T18:35:33.421Z,8.69
2019-02-26T18:40:29.315Z,8.39
2019-02-26T18:45:27.988Z,8.83
2019-02-26T18:50:27.837Z,8.30
2019-02-26T18:55:27.974Z,8.01
2019-02-26T19:00:40.780Z,7.98
2019-02-26T19:05:36.684Z,7.95
2019-02-26T19:10:32.572Z,8.26
2019-02-26T19:15:31.218Z,7.58
2019-02-26T19:20:30.013Z,7.30
2019-02-26T19:25:25.910Z,7.10
2019-02-26T19:30:22.221Z,6.99
2019-02-26T19:35:18.118Z,7.36
2019-02-26T19:40:17.319Z,7.60
2019-02-26T19:45:16.602Z,7.27
2019-02-26T19:50:14.818Z,7.46
2019-02-26T19:55:16.953Z,7.06
2019-02-26T20:00:14.509Z,6.47
2019-02-26T20:05:13.410Z,6.71
2019-02-26T20:10:15.301Z,6.13
2019-02-26T20:15:13.383Z,7.00
2019-02-26T20:20:17.465Z,6.20
2019-02-26T20:25:23.873Z,5.85
2019-02-26T20:30:23.907Z,5.68
2019-02-26T20:35:19.879Z,5.41
2019-02-26T20:40:17.725Z,5.33
2019-02-26T20:45:22.905Z,5.91
2019-02-26T20:50:21.231Z,5.89
2019-02-26T20:55:21.489Z,5.32
2019-02-26T21:00:18.490Z,5.18
2019-02-26T21:05:14.660Z,5.12
2019-02-26T21:10:15.074Z,4.92
2019-02-26T21:15:18.196Z,4.76
2019-02-26T21:20:14.178Z,4.79
2019-02-26T21:25:11.776Z,4.73
2019-02-26T21:30:13.606Z,4.54
2019-02-26T21:35:10.293Z,4.39
2019-02-26T21:40:08.779Z,4.59
2019-02-26T21:45:12.982Z,4.34
2019-02-26T21:50:13.560Z,4.22
2019-02-26T21:55:14.720Z,4.64
2019-02-26T22:00:13.619Z,4.32
2019-02-26T22:05:09.704Z,4.18
2019-02-26T22:10:16.677Z,4.09
2019-02-26T22:15:21.339Z,4.35
2019-02-26T22:20:23.705Z,4.19
2019-02-26T22:25:17.447Z,4.76
2019-02-26T22:30:38.394Z,4.20
2019-02-26T22:35:34.280Z,4.01
2019-02-26T22:40:30.168Z,4.35
2019-02-26T22:45:27.956Z,4.62
2019-02-26T22:50:26.864Z,3.79
2019-02-26T22:55:22.171Z,3.48
2019-02-26T23:00:34.727Z,3.69
2019-02-26T23:05:30.612Z,3.58
2019-02-26T23:10:26.500Z,3.28
2019-02-26T23:15:45.854Z,3.18
2019-02-26T23:20:42.872Z,3.71
2019-02-26T23:25:38.951Z,3.79
2019-02-26T23:30:34.966Z,3.56
2019-02-26T23:35:30.848Z,3.27
2019-02-26T23:40:27.473Z,3.06
2019-02-26T23:45:45.077Z,2.92
2019-02-26T23:50:41.019Z,2.89
2019-02-26T23:55:37.012Z,3.60
